Time;durP1;ratioP1;P1;durP2;ratioP2;P2;SDS_P1;SDS_P2;PMS_P1;PMS_P2;Temp;Humidity;BMP_temperature;BMP_pressure;BME280_temperature;BME280_humidity;BME280_pressure;Samples;Min_cycle;Max_cycle;Signal;HPM_P1;HPM_P2
2022/06/21 00:01:05;;;;;;;2.47;2.25;;;;;;;23.55;46.04;98572.38;1769136;79;21076;-78
2022/06/21 00:03:32;;;;;;;3.50;2.80;;;;;;;23.54;45.96;98577.52;1772638;79;21049;-77
2022/06/21 00:05:58;;;;;;;3.75;2.47;;;;;;;23.52;45.94;98569.41;1725546;81;21029;-78
2022/06/21 00:08:31;;;;;;;2.90;2.60;;;;;;;23.49;45.90;98564.02;1750408;81;22572;-76
2022/06/21 00:10:57;;;;;;;2.87;2.37;;;;;;;23.47;45.92;98562.66;1757525;80;21042;-80
2022/06/21 00:13:29;;;;;;;4.78;2.30;;;;;;;23.44;45.75;98560.53;1767406;81;21042;-77
2022/06/21 00:16:03;;;;;;;3.87;2.58;;;;;;;23.42;45.81;98569.49;1758373;80;21038;-77
2022/06/21 00:18:29;;;;;;;;;;;;;;;23.40;45.70;98568.97;1734146;81;21006;-78
2022/06/21 00:20:56;;;;;;;3.72;2.42;;;;;;;23.39;45.71;98560.56;1759055;79;21664;-78
2022/06/21 00:23:24;;;;;;;2.70;2.40;;;;;;;;;;1743938;79;21014;-81
2022/06/21 00:25:51;;;;;;;3.08;2.37;;;;;;;23.34;45.44;98564.92;1757004;80;21081;-79
2022/06/21 00:28:20;;;;;;;5.00;2.80;;;;;;;23.32;45.48;98545.98;1764033;81;21038;-81
2022/06/21 00:30:47;;;;;;;5.55;2.35;;;;;;;23.31;45.52;98547.89;1760452;80;21067;-78
2022/06/21 00:33:16;;;;;;;4.35;2.40;;;;;;;23.30;45.31;98548.97;1774242;80;21609;-81
2022/06/21 00:35:45;;;;;;;4.72;2.70;;;;;;;23.30;45.22;98538.68;1764626;80;21092;-80
2022/06/21 00:38:28;;;;;;;2.95;2.40;;;;;;;23.29;45.13;98532.43;1773783;79;21016;-81
2022/06/21 00:40:56;;;;;;;3.20;2.33;;;;;;;23.29;45.02;98531.63;1770959;79;21021;-79
2022/06/21 00:43:26;;;;;;;3.83;2.10;;;;;;;23.29;44.83;98531.63;1767568;79;21475;-79
2022/06/21 00:45:53;;;;;;;2.67;2.22;;;;;;;23.30;44.81;98536.77;1774090;80;21550;-77
2022/06/21 00:48:37;;;;;;;3.25;2.35;;;;;;;23.29;44.73;98531.08;1766492;80;21090;-77
2022/06/21 00:51:14;;;;;;;4.35;2.20;;;;;;;23.29;44.77;98524.85;1782078;80;21084;-76
2022/06/21 00:53:55;;;;;;;2.35;2.15;;;;;;;23.27;44.74;98522.97;1806940;78;21086;-76
2022/06/21 00:56:30;;;;;;;3.42;2.33;;;;;;;23.25;44.71;98519.19;1796764;79;21100;-75
2022/06/21 00:58:56;;;;;;;2.75;2.27;;;;;;;23.24;44.68;98522.20;1770765;79;21330;-76
2022/06/21 01:01:28;;;;;;;3.62;2.67;;;;;;;23.22;44.51;98522.47;1785021;80;21029;-76
2022/06/21 01:04:05;;;;;;;3.42;2.60;;;;;;;23.21;44.59;98507.30;1802052;79;26637;-78
2022/06/21 01:06:36;;;;;;;2.33;2.08;;;;;;;23.19;44.50;98550.11;1795071;79;21540;-75
2022/06/21 01:09:16;;;;;;;3.27;2.02;;;;;;;23.18;44.36;98505.16;1794540;79;21033;-77
2022/06/21 01:11:49;;;;;;;5.23;2.37;;;;;;;23.15;44.31;98523.32;1763564;79;20998;-76
2022/06/21 01:14:18;;;;;;;2.60;2.40;;;;;;;23.14;44.29;98503.56;1767079;80;21074;-77
2022/06/21 01:16:44;;;;;;;2.62;2.17;;;;;;;23.15;44.37;98496.23;1778320;80;21017;-74
2022/06/21 01:19:41;;;;;;;4.17;1.98;;;;;;;23.11;44.31;98483.80;1822082;78;20989;-76
2022/06/21 01:22:59;;;;;;;3.40;2.10;;;;;;;23.08;44.39;98492.50;1817097;78;21124;-77
2022/06/21 01:25:43;;;;;;;3.72;2.05;;;;;;;23.05;44.41;98490.89;1784944;78;21526;-77
2022/06/21 01:28:10;;;;;;;4.55;2.33;;;;;;;23.02;44.46;98475.16;1782521;79;21097;-78
2022/06/21 01:30:37;;;;;;;4.17;2.22;;;;;;;22.99;44.49;98482.51;1798732;79;21091;-77
2022/06/21 01:33:04;;;;;;;2.90;2.22;;;;;;;22.97;44.51;98484.94;1782290;79;21088;-77
2022/06/21 01:35:49;;;;;;;3.92;2.22;;;;;;;22.94;44.57;98474.66;1781407;79;21070;-78
2022/06/21 01:38:20;;;;;;;2.47;2.27;;;;;;;22.93;44.63;98467.63;1765626;80;21504;-77
2022/06/21 01:40:49;;;;;;;3.62;2.10;;;;;;;22.92;44.66;98468.71;1751494;80;21041;-81
2022/06/21 01:43:23;;;;;;;2.50;2.30;;;;;;;22.90;44.66;98463.32;1760219;80;21597;-80
2022/06/21 01:46:00;;;;;;;4.03;2.00;;;;;;;22.88;44.68;98456.83;1764592;80;21014;-77
2022/06/21 01:48:37;;;;;;;2.70;2.30;;;;;;;22.88;44.60;98466.86;1770649;80;21539;-79
2022/06/21 01:51:07;;;;;;;2.60;2.00;;;;;;;22.88;44.61;98472.27;1758422;80;21140;-77
2022/06/21 01:53:34;;;;;;;2.15;1.95;;;;;;;22.86;44.63;98456.30;1771067;80;21055;-78
2022/06/21 01:56:08;;;;;;;3.00;2.42;;;;;;;22.88;44.73;98454.67;1776777;80;21076;-79
2022/06/21 01:58:41;;;;;;;2.50;2.08;;;;;;;22.87;44.73;98456.58;1771871;80;21066;-80
2022/06/21 02:01:12;;;;;;;3.90;2.70;;;;;;;22.86;44.70;98456.30;1777394;80;21080;-80
2022/06/21 02:03:38;;;;;;;2.15;2.05;;;;;;;22.89;44.78;98454.92;1778239;80;21096;-80
2022/06/21 02:06:12;;;;;;;2.45;2.08;;;;;;;22.88;44.78;98456.83;1780702;80;21042;-77
2022/06/21 02:08:52;;;;;;;2.60;2.25;;;;;;;22.87;44.77;98455.22;1773080;80;20999;-77
2022/06/21 02:11:28;;;;;;;4.05;2.30;;;;;;;22.87;44.86;98446.27;1773423;80;21085;-78
2022/06/21 02:16:47;;;;;;;2.60;2.40;;;;;;;22.87;44.94;98447.63;1769288;80;21143;-78
2022/06/21 02:19:42;;;;;;;4.17;2.37;;;;;;;22.85;45.00;98452.52;1776163;80;21022;-78
2022/06/21 02:22:18;;;;;;;2.45;2.15;;;;;;;22.87;45.00;98439.50;1757519;80;21053;-79
2022/06/21 02:24:44;;;;;;;3.12;2.80;;;;;;;22.86;45.04;98429.77;1763748;80;21002;-78
2022/06/21 02:27:12;;;;;;;2.50;2.30;;;;;;;22.88;45.10;98435.16;1741410;81;21013;-79
2022/06/21 02:29:40;;;;;;;4.30;2.40;;;;;;;22.90;45.17;98430.83;1776494;79;21087;-79
2022/06/21 02:32:12;;;;;;;2.47;2.10;;;;;;;22.92;45.24;98425.94;1766352;80;20998;-80
2022/06/21 02:34:38;;;;;;;4.30;2.72;;;;;;;22.92;45.36;98419.97;1767306;80;21490;-78
2022/06/21 02:37:05;;;;;;;4.92;2.98;;;;;;;22.93;45.44;98416.73;1775724;78;22096;-80
2022/06/21 02:39:33;;;;;;;4.65;2.40;;;;;;;22.94;45.51;98408.86;1793496;78;21031;-79
2022/06/21 02:42:20;;;;;;;2.83;2.17;;;;;;;22.94;45.59;98421.05;1805142;78;21923;-79
2022/06/21 02:44:51;;;;;;;2.47;2.27;;;;;;;22.95;45.71;98423.48;1774542;80;21018;-75
2022/06/21 02:47:25;;;;;;;4.22;2.35;;;;;;;22.96;45.80;98436.47;1765916;80;21107;-76
2022/06/21 02:50:02;;;;;;;2.80;2.55;;;;;;;22.96;45.83;98401.27;1787080;80;21039;-78
2022/06/21 02:52:34;;;;;;;5.25;2.50;;;;;;;22.95;45.93;98391.54;1794133;78;21656;-78
2022/06/21 02:55:09;;;;;;;3.17;2.35;;;;;;;22.95;45.95;98398.31;1767639;79;21321;-77
2022/06/21 02:57:47;;;;;;;4.42;2.15;;;;;;;22.93;46.10;98403.20;1771035;80;21530;-79
2022/06/21 03:00:18;;;;;;;4.33;2.77;;;;;;;22.90;46.23;98388.30;1762895;80;21029;-79
2022/06/21 03:02:45;;;;;;;4.37;2.27;;;;;;;22.87;46.31;98390.77;1768015;80;21057;-79
2022/06/21 03:05:16;;;;;;;2.83;2.50;;;;;;;22.85;46.48;98389.72;1774740;79;21081;-79
2022/06/21 03:07:53;;;;;;;3.25;2.47;;;;;;;22.84;46.60;98384.58;1785773;79;21079;-82
2022/06/21 03:10:27;;;;;;;2.77;2.58;;;;;;;22.84;46.75;98389.44;1766919;78;21046;-81
2022/06/21 03:13:01;;;;;;;5.25;2.70;;;;;;;22.83;46.87;98388.36;1773094;78;21025;-77
2022/06/21 03:15:29;;;;;;;3.20;2.50;;;;;;;22.81;46.87;98387.28;1780498;80;20987;-80
2022/06/21 03:17:59;;;;;;;3.35;2.60;;;;;;;22.79;46.94;98390.81;1787169;79;20962;-81
2022/06/21 03:20:25;;;;;;;3.72;2.42;;;;;;;22.78;47.09;98387.31;1767437;79;21114;-81
2022/06/21 03:22:53;;;;;;;2.70;2.50;;;;;;;22.80;47.15;98368.63;1787638;79;21475;-79
2022/06/21 03:25:27;;;;;;;3.35;2.70;;;;;;;22.81;47.22;98368.88;1774495;80;21029;-80
2022/06/21 03:28:00;;;;;;;4.92;2.67;;;;;;;22.81;47.37;98364.27;1774784;80;21024;-80
2022/06/21 03:30:32;;;;;;;3.52;2.50;;;;;;;22.80;47.44;98362.66;1785342;78;21034;-79
2022/06/21 03:32:59;;;;;;;5.03;2.62;;;;;;;22.80;47.45;98361.31;1792084;78;21145;-77
2022/06/21 03:35:26;;;;;;;3.80;3.00;;;;;;;22.81;47.52;98364.82;1789233;80;20982;-78
2022/06/21 03:37:53;;;;;;;3.27;2.60;;;;;;;22.82;47.70;98365.09;1770847;80;20996;-79
2022/06/21 03:43:12;;;;;;;5.17;2.60;;;;;;;22.81;47.83;98353.44;1782951;79;21067;-76
2022/06/21 03:45:40;;;;;;;4.50;2.47;;;;;;;22.82;47.89;98361.04;1795315;80;21136;-82
2022/06/21 03:48:16;;;;;;;4.80;2.42;;;;;;;22.82;48.01;98363.19;1787639;80;21478;-80
2022/06/21 03:50:58;;;;;;;5.17;2.80;;;;;;;22.83;48.06;98356.70;1773965;79;21032;-81
2022/06/21 03:53:34;;;;;;;7.42;3.25;;;;;;;22.84;48.07;98380.52;1797702;78;20990;-81
2022/06/21 03:56:11;;;;;;;4.33;2.70;;;;;;;22.84;48.09;98349.38;1775991;80;21081;-81
2022/06/21 03:58:50;;;;;;;4.25;3.05;;;;;;;22.82;48.18;98367.25;1784058;80;21840;-78
2022/06/21 04:01:31;;;;;;;7.45;2.70;;;;;;;22.82;48.27;98373.22;1791780;79;21603;-79
2022/06/21 04:04:29;;;;;;;2.72;2.52;;;;;;;22.84;48.40;98358.86;1822366;78;21032;-79
2022/06/21 04:07:17;;;;;;;5.33;2.70;;;;;;;22.84;48.54;98351.53;1810273;78;21029;-81
2022/06/21 04:09:52;;;;;;;3.90;3.27;;;;;;;22.85;48.50;98353.16;1814862;78;21028;-76
2022/06/21 04:12:43;;;;;;;4.20;2.62;;;;;;;22.87;48.65;98343.38;1775469;80;21136;-75
2022/06/21 04:15:20;;;;;;;6.90;2.90;;;;;;;22.89;48.68;98346.09;1810044;78;21079;-76
2022/06/21 04:17:57;;;;;;;3.20;2.90;;;;;;;22.94;48.80;98346.58;1792248;79;21015;-77
2022/06/21 04:20:30;;;;;;;8.33;3.40;;;;;;;22.99;48.86;98341.69;1787029;80;21015;-75
2022/06/21 04:23:16;;;;;;;;;;;;;;;23.03;48.90;98334.64;1799792;78;21512;-78
2022/06/21 04:26:12;;;;;;;4.60;2.95;;;;;;;23.06;49.03;98340.83;1799043;78;21160;-75
2022/06/21 04:28:46;;;;;;;4.75;2.98;;;;;;;23.08;49.09;98334.05;1799107;78;21108;-76
2022/06/21 04:31:23;;;;;;;4.30;3.10;;;;;;;23.15;49.07;98338.58;1796431;78;21060;-74
2022/06/21 04:34:01;;;;;;;3.02;2.72;;;;;;;23.23;48.92;98335.80;1816244;78;21701;-75
2022/06/21 04:36:36;;;;;;;8.68;2.80;;;;;;;23.31;48.84;98335.20;1817773;78;21551;-75
2022/06/21 04:39:16;;;;;;;2.95;2.65;;;;;;;23.35;48.72;98325.92;1792887;78;21506;-73
2022/06/21 04:41:54;;;;;;;6.60;3.17;;;;;;;;;;1777503;80;21020;-76
2022/06/21 04:44:29;;;;;;;4.45;3.10;;;;;;;23.41;48.85;98330.74;1785226;78;21545;-75
2022/06/21 04:47:20;;;;;;;2.72;2.52;;;;;;;23.45;48.69;98325.01;1788324;79;21070;-77
2022/06/21 04:50:05;;;;;;;6.05;2.87;;;;;;;23.46;48.82;98319.30;1810998;78;21565;-77
2022/06/21 04:52:38;;;;;;;;;;;;;;;23.48;49.10;98323.09;1813862;78;21689;-75
2022/06/21 04:55:05;;;;;;;4.60;3.40;;;;;;;23.51;49.11;98312.48;1775680;80;20182;-75
2022/06/21 04:57:32;;;;;;;6.00;3.30;;;;;;;23.56;49.27;98311.61;1759388;80;21111;-74
2022/06/21 05:00:08;;;;;;;4.97;2.87;;;;;;;23.63;49.41;98318.06;1807219;78;21032;-74
2022/06/21 05:02:39;;;;;;;4.75;3.60;;;;;;;23.71;49.18;98316.86;1765200;80;21079;-73
2022/06/21 05:05:20;;;;;;;3.63;3.00;;;;;;;23.77;49.29;98301.90;1798742;78;21076;-74
2022/06/21 05:08:01;;;;;;;5.20;3.65;;;;;;;23.82;49.28;98299.17;1785825;80;21029;-75
2022/06/21 05:10:36;;;;;;;7.83;3.30;;;;;;;23.92;49.15;98293.61;1816927;78;21021;-73
2022/06/21 05:13:06;;;;;;;6.35;3.83;;;;;;;24.01;49.18;98293.75;1781028;78;21033;-75
2022/06/21 05:15:36;;;;;;;4.62;3.08;;;;;;;24.08;49.19;98285.51;1790030;78;21021;-73
2022/06/21 05:18:16;;;;;;;4.78;3.15;;;;;;;24.16;49.22;98294.09;1804133;78;21110;-73
2022/06/21 05:20:53;;;;;;;3.20;2.90;;;;;;;24.23;48.89;98293.19;1798636;78;21049;-77
2022/06/21 05:23:20;;;;;;;5.75;3.35;;;;;;;24.27;49.09;98294.22;1780377;78;20993;-77
2022/06/21 05:25:47;;;;;;;5.35;3.27;;;;;;;24.34;49.21;98291.95;1774298;80;21018;-75
2022/06/21 05:28:40;;;;;;;5.78;3.40;;;;;;;24.38;49.27;98282.12;1789013;78;21068;-75
2022/06/21 05:31:10;;;;;;;;;;;;;;;24.43;49.40;98286.65;1792230;78;21239;-74
2022/06/21 05:33:52;;;;;;;4.83;3.40;;;;;;;24.52;49.41;98278.13;1805770;78;20152;-76
2022/06/21 05:36:32;;;;;;;6.28;3.90;;;;;;;24.59;49.36;98279.09;1785536;78;21042;-76
2022/06/21 05:39:02;;;;;;;8.70;3.58;;;;;;;24.69;49.66;98285.75;1798016;78;21005;-75
2022/06/21 05:41:43;;;;;;;4.47;3.90;;;;;;;24.79;49.52;98275.27;1789478;79;21029;-75
2022/06/21 05:44:25;;;;;;;5.37;3.50;;;;;;;24.84;49.25;98280.59;1732828;81;21216;-77
2022/06/21 05:47:04;;;;;;;5.08;3.87;;;;;;;24.86;49.54;98269.70;1749844;81;21075;-76
2022/06/21 05:49:32;;;;;;;6.50;3.67;;;;;;;24.92;49.59;98284.01;1756038;81;21103;-76
2022/06/21 05:52:02;;;;;;;4.78;3.37;;;;;;;24.92;49.59;98273.94;1792573;80;21537;-76
2022/06/21 05:54:42;;;;;;;6.90;3.55;;;;;;;24.89;49.56;98277.24;1792095;80;21028;-75
2022/06/21 05:57:11;;;;;;;7.22;3.77;;;;;;;24.91;49.92;98269.59;1748247;80;21539;-77
2022/06/21 05:59:38;;;;;;;10.53;3.87;;;;;;;24.99;49.94;98274.10;1767768;80;21497;-75
2022/06/21 06:02:13;;;;;;;4.17;3.77;;;;;;;25.04;49.90;98273.45;1761373;80;21551;-77
2022/06/21 06:04:59;;;;;;;8.45;3.80;;;;;;;25.07;49.85;98259.82;1738983;81;21576;-76
2022/06/21 06:07:33;;;;;;;6.47;3.55;;;;;;;25.10;50.02;98247.80;1749988;81;21033;-77
2022/06/21 06:10:00;;;;;;;4.37;3.47;;;;;;;25.17;50.06;98262.38;1767385;79;21144;-76
2022/06/21 06:12:40;;;;;;;5.60;3.42;;;;;;;25.23;50.27;98273.42;1762910;79;21089;-75
2022/06/21 06:15:16;;;;;;;6.22;3.80;;;;;;;25.26;50.13;98264.66;1740673;80;21037;-77
2022/06/21 06:18:01;;;;;;;6.30;3.50;;;;;;;25.28;50.34;98254.31;1762403;79;21112;-76
2022/06/21 06:20:36;;;;;;;3.75;3.45;;;;;;;25.31;50.48;98255.05;1761371;79;21035;-75
2022/06/21 06:23:31;;;;;;;6.80;4.12;;;;;;;25.36;50.50;98263.65;1758687;80;21532;-76
2022/06/21 06:26:05;;;;;;;5.10;3.80;;;;;;;25.37;50.58;98257.69;1739908;81;21092;-76
2022/06/21 06:28:51;;;;;;;6.37;3.90;;;;;;;25.39;50.70;98259.55;1765133;81;21146;-74
2022/06/21 06:31:34;;;;;;;6.78;4.17;;;;;;;25.45;51.01;98265.13;1751391;81;21009;-76
2022/06/21 06:34:07;;;;;;;6.53;4.40;;;;;;;25.53;51.14;98252.18;1754605;79;21052;-75
2022/06/21 06:36:47;;;;;;;5.05;4.20;;;;;;;25.59;51.53;98248.25;1775086;79;21174;-77
2022/06/21 06:39:22;;;;;;;6.67;4.00;;;;;;;25.64;51.92;98248.15;1766538;79;21016;-74
2022/06/21 06:42:00;;;;;;;4.70;4.30;;;;;;;25.75;51.82;98252.83;1788029;78;21100;-75
2022/06/21 06:44:28;;;;;;;7.25;4.25;;;;;;;25.80;52.10;98245.91;1781872;79;21021;-75
2022/06/21 06:46:58;;;;;;;7.17;4.30;;;;;;;25.86;52.41;98241.16;1776393;79;21530;-75
2022/06/21 06:49:36;;;;;;;7.37;4.83;;;;;;;25.90;52.31;98236.19;1775086;79;21633;-73
2022/06/21 06:52:07;;;;;;;5.28;4.67;;;;;;;25.93;52.52;98235.36;1787992;79;21021;-74
2022/06/21 06:54:55;;;;;;;5.12;4.28;;;;;;;25.92;53.39;98234.53;1771285;79;21104;-75
2022/06/21 06:57:42;;;;;;;9.58;4.45;;;;;;;25.87;53.50;98229.98;1780411;78;21620;-77
2022/06/21 07:00:21;;;;;;;5.17;4.53;;;;;;;25.83;54.02;98229.55;1778967;78;21651;-76
2022/06/21 07:02:56;;;;;;;6.12;4.70;;;;;;;25.79;54.92;98231.28;1791105;79;21859;-75
2022/06/21 07:05:42;;;;;;;7.15;5.28;;;;;;;25.74;55.82;98228.66;1769872;78;21022;-76
2022/06/21 07:08:49;;;;;;;6.20;4.72;;;;;;;25.73;55.45;98233.83;1784115;79;21088;-76
2022/06/21 07:11:39;;;;;;;6.83;4.70;;;;;;;25.72;55.45;98226.23;1774427;79;21557;-75
2022/06/21 07:14:18;;;;;;;9.60;5.10;;;;;;;25.78;55.96;98223.66;1778908;79;21024;-76
2022/06/21 07:16:44;;;;;;;5.70;5.10;;;;;;;25.88;55.97;98217.18;1780843;79;21306;-76
2022/06/21 07:19:11;;;;;;;5.97;4.97;;;;;;;25.98;56.24;98219.73;1768062;79;21135;-76
2022/06/21 07:21:38;;;;;;;10.35;5.87;;;;;;;26.12;55.57;98223.77;1784627;79;21096;-75
2022/06/21 07:24:16;;;;;;;8.48;6.00;;;;;;;26.23;55.57;98222.41;1782912;79;21100;-76
2022/06/21 07:26:53;;;;;;;7.37;5.37;;;;;;;26.33;55.29;98226.81;1788383;79;21057;-75
2022/06/21 07:29:40;;;;;;;9.60;5.20;;;;;;;26.42;55.80;98224.14;1768478;79;22344;-74
2022/06/21 07:32:11;;;;;;;7.10;5.28;;;;;;;26.49;54.92;98228.59;1783619;78;21125;-73
2022/06/21 07:34:59;;;;;;;7.95;5.90;;;;;;;26.48;54.75;98225.62;1770667;79;20974;-75
2022/06/21 07:37:31;;;;;;;6.83;5.12;;;;;;;26.48;55.41;98227.80;1775181;78;21108;-77
2022/06/21 07:40:24;;;;;;;10.63;5.55;;;;;;;26.55;55.13;98221.91;1782301;79;21056;-74
2022/06/21 07:43:13;;;;;;;;;;;;;;;26.60;55.38;98224.55;1779007;79;22015;-76
2022/06/21 07:45:47;;;;;;;7.42;5.87;;;;;;;26.73;55.13;98216.03;1776126;79;20211;-76
2022/06/21 07:48:37;;;;;;;10.15;6.42;;;;;;;26.84;55.38;98218.74;1789556;79;21752;-76
2022/06/21 07:51:20;;;;;;;8.90;5.47;;;;;;;26.88;55.05;98210.75;1788255;79;21016;-72
2022/06/21 07:54:02;;;;;;;6.70;5.62;;;;;;;26.87;54.97;98204.52;1790846;79;21072;-74
2022/06/21 07:57:00;;;;;;;7.80;6.00;;;;;;;26.82;54.89;98206.56;1779951;79;21144;-75
2022/06/21 07:59:43;;;;;;;10.35;5.95;;;;;;;26.78;55.38;98211.83;1764101;78;21089;-72
2022/06/21 08:08:38;;;;;;;6.28;5.70;;;;;;;27.05;54.97;98203.22;1806367;78;21680;-83
2022/06/21 08:11:13;;;;;;;9.23;6.47;;;;;;;27.10;56.81;98199.01;1814774;78;21069;-81
2022/06/21 08:13:40;;;;;;;11.88;5.97;;;;;;;27.12;58.84;98200.03;1780396;78;21056;-81
2022/06/21 08:16:17;;;;;;;8.25;6.70;;;;;;;27.16;56.36;98195.02;1775145;78;21033;-80
2022/06/21 08:18:52;;;;;;;10.38;5.95;;;;;;;27.22;56.42;98198.41;1789952;79;21014;-83
2022/06/21 08:21:25;;;;;;;10.05;6.75;;;;;;;27.32;55.68;98194.05;1784799;78;21069;-84
2022/06/21 08:24:00;;;;;;;8.85;6.85;;;;;;;27.45;54.80;98197.78;1780170;80;21482;-82
2022/06/21 08:26:32;;;;;;;8.15;6.55;;;;;;;27.57;54.25;98191.14;1801047;78;21068;-83
2022/06/21 08:29:14;;;;;;;8.85;6.35;;;;;;;27.74;54.27;98195.01;1799559;78;21179;-81
2022/06/21 08:31:44;;;;;;;11.40;6.30;;;;;;;27.91;53.81;98185.53;1785729;79;20991;-82
2022/06/21 08:34:36;;;;;;;9.75;5.92;;;;;;;28.16;53.32;98195.39;1790522;79;21045;-83
2022/06/21 08:37:33;;;;;;;8.70;6.10;;;;;;;28.37;53.33;98185.41;1778127;78;21174;-82
2022/06/21 08:40:16;;;;;;;8.80;6.10;;;;;;;28.59;52.08;98185.81;1780790;80;21069;-81
2022/06/21 08:43:15;;;;;;;13.22;6.70;;;;;;;28.83;51.29;98190.71;1784807;78;21021;-83
2022/06/21 08:46:07;;;;;;;9.30;6.12;;;;;;;29.04;51.30;98178.28;1797863;78;21001;-83
2022/06/21 08:48:56;;;;;;;9.98;5.78;;;;;;;29.26;50.76;98175.86;1809462;78;21065;-79
2022/06/21 08:54:52;;;;;;;8.90;5.47;;;;;;;29.71;48.99;98173.33;1825576;76;22574;-80
2022/06/21 08:57:52;;;;;;;7.53;5.45;;;;;;;29.76;48.20;98177.25;1827246;76;21021;-82
2022/06/21 09:00:27;;;;;;;9.35;5.60;;;;;;;29.87;48.33;98171.40;1804657;76;21125;-83
2022/06/21 09:03:11;;;;;;;7.90;5.22;;;;;;;30.03;48.10;98181.96;1816540;76;20973;-79
2022/06/21 09:06:13;;;;;;;8.25;5.55;;;;;;;30.10;47.78;98175.39;1815679;77;21379;-83
2022/06/21 09:09:04;;;;;;;9.48;5.70;;;;;;;30.15;47.65;98168.34;1813406;77;21009;-80
2022/06/21 09:12:02;;;;;;;8.23;5.42;;;;;;;30.22;47.52;98170.53;1759660;79;21869;-81
2022/06/21 09:14:42;;;;;;;11.93;6.10;;;;;;;30.33;47.39;98167.63;1757146;79;21198;-79
2022/06/21 09:17:47;;;;;;;8.20;5.60;;;;;;;30.48;47.17;98168.94;1827466;78;20964;-80
2022/06/21 09:20:45;;;;;;;10.70;5.97;;;;;;;30.55;46.94;98158.79;1826623;76;21012;-82
2022/06/21 09:23:23;;;;;;;9.90;6.42;;;;;;;30.64;46.78;98164.19;1794010;78;20984;-83
2022/06/21 09:26:11;;;;;;;8.60;6.08;;;;;;;30.65;46.90;98159.72;1807320;78;20979;-81
2022/06/21 09:28:43;;;;;;;7.45;5.28;;;;;;;30.65;46.94;98154.23;1828339;77;21127;-88
2022/06/21 09:31:24;;;;;;;7.97;5.67;;;;;;;30.78;46.26;98156.44;1821216;76;21068;-88
2022/06/21 09:34:02;;;;;;;8.65;5.47;;;;;;;30.86;46.57;98158.27;1797214;76;21012;-80
2022/06/21 09:36:40;;;;;;;8.93;5.25;;;;;;;30.98;46.07;98149.27;1756838;79;21545;-83
2022/06/21 09:39:36;;;;;;;9.25;5.62;;;;;;;31.02;46.03;98144.70;1813783;77;21000;-82
2022/06/21 09:42:34;;;;;;;8.30;5.40;;;;;;;31.03;45.80;98141.41;1805919;77;21107;-84
2022/06/21 09:45:18;;;;;;;8.70;5.70;;;;;;;31.07;45.92;98149.17;1812011;78;21067;-84
2022/06/21 09:48:06;;;;;;;7.30;5.17;;;;;;;31.04;45.81;98136.14;1813819;77;21011;-85
2022/06/21 09:50:46;;;;;;;7.60;5.42;;;;;;;31.00;46.24;98136.02;1809046;78;21019;-81
2022/06/21 09:53:59;;;;;;;6.53;5.12;;;;;;;31.03;45.98;98130.44;1813916;77;21608;-85
2022/06/21 09:56:49;;;;;;;8.18;4.45;;;;;;;31.22;46.46;98123.80;1810539;78;21163;-86
2022/06/21 09:59:24;;;;;;;7.53;5.40;;;;;;;31.99;45.28;98116.64;1763265;80;21061;-84
2022/06/21 10:02:20;;;;;;;8.23;5.35;;;;;;;32.55;44.07;98104.81;1806161;77;21003;-84
2022/06/21 10:05:15;;;;;;;6.95;5.03;;;;;;;32.77;43.52;98108.94;1809376;77;21062;-84
2022/06/21 10:07:50;;;;;;;6.85;4.70;;;;;;;32.69;43.16;98137.62;1819135;79;21488;-84
2022/06/21 10:10:46;;;;;;;8.75;5.65;;;;;;;32.11;43.91;98155.87;1809116;78;21182;-84
2022/06/21 10:13:39;;;;;;;12.58;5.25;;;;;;;31.51;45.32;98154.31;1765404;79;20994;-82
2022/06/21 10:16:56;;;;;;;12.33;5.55;;;;;;;30.88;46.66;98164.78;1735864;79;21060;-82
2022/06/21 10:19:53;;;;;;;8.75;5.30;;;;;;;30.29;47.62;98172.16;1767347;80;21049;-85
2022/06/21 10:22:44;;;;;;;7.70;5.47;;;;;;;29.64;48.75;98176.37;1753857;78;21035;-84
2022/06/21 10:25:35;;;;;;;11.90;6.10;;;;;;;29.15;49.93;98180.91;1779805;79;21163;-80
2022/06/21 10:28:43;;;;;;;9.73;5.40;;;;;;;28.74;50.53;98165.37;1755437;80;20967;-80
2022/06/21 10:31:24;;;;;;;12.10;5.30;;;;;;;28.66;51.20;98163.44;1755539;80;21089;-83
2022/06/21 10:34:32;;;;;;;8.63;5.50;;;;;;;28.65;51.27;98156.39;1774281;80;21015;-82
2022/06/21 10:37:28;;;;;;;10.58;5.42;;;;;;;28.62;51.29;98167.39;1752336;80;21639;-82
2022/06/21 10:40:29;;;;;;;6.47;5.35;;;;;;;28.48;51.71;98154.47;1781789;80;21248;-78
2022/06/21 10:43:17;;;;;;;8.15;5.45;;;;;;;28.37;51.74;98156.73;1764187;80;20998;-81
2022/06/21 10:45:58;;;;;;;10.45;5.72;;;;;;;28.24;52.03;98174.92;1825007;78;21009;-82
2022/06/21 10:49:14;;;;;;;8.48;5.60;;;;;;;28.14;52.28;98164.87;1829681;76;21518;-82
2022/06/21 10:52:28;;;;;;;7.47;5.33;;;;;;;28.13;52.79;98173.64;1813540;76;21469;-80
2022/06/21 10:55:21;;;;;;;8.13;6.30;;;;;;;28.28;52.86;98177.81;1803984;76;20962;-78
2022/06/21 10:58:22;;;;;;;8.58;6.47;;;;;;;28.31;52.78;98175.78;1821842;77;21527;-77
2022/06/21 11:01:21;;;;;;;8.48;6.15;;;;;;;28.47;52.60;98187.56;1824806;76;21028;-82
2022/06/21 11:04:32;;;;;;;9.48;6.83;;;;;;;28.66;52.78;98199.53;1830373;77;21000;-88
2022/06/21 11:07:13;;;;;;;12.58;7.15;;;;;;;28.82;52.22;98208.25;1834985;77;21063;-80
2022/06/21 11:09:57;;;;;;;8.60;6.70;;;;;;;28.93;52.20;98210.05;1825510;77;21523;-83
2022/06/21 11:15:51;;;;;;;9.63;7.65;;;;;;;28.89;52.19;98210.47;1826394;77;21014;-80
2022/06/21 11:19:00;;;;;;;9.53;7.80;;;;;;;28.58;52.85;98214.23;1842145;77;21283;-80
2022/06/21 11:21:51;;;;;;;9.33;8.43;;;;;;;28.22;53.76;98220.03;1828051;77;21009;-81
2022/06/21 11:24:51;;;;;;;13.03;9.73;;;;;;;27.90;55.13;98219.95;1823194;77;21110;-82
2022/06/21 11:27:38;;;;;;;11.08;9.55;;;;;;;27.58;55.78;98220.58;1829225;77;20940;-86
2022/06/21 11:30:10;;;;;;;11.43;9.75;;;;;;;27.28;56.93;98220.34;1828269;77;21024;-85
2022/06/21 11:33:18;;;;;;;14.30;10.03;;;;;;;26.96;57.63;98221.45;1839821;76;20991;-84
2022/06/21 11:36:16;;;;;;;12.98;10.43;;;;;;;26.77;58.47;98234.75;1836565;77;21058;-81
2022/06/21 11:39:00;;;;;;;11.28;9.65;;;;;;;26.52;58.88;98233.44;1839864;77;21230;-82
2022/06/21 11:45:04;;;;;;;14.58;3.95;;;;;;;25.49;59.54;98281.08;1829893;77;21015;-80
2022/06/21 11:48:14;;;;;;;9.48;3.17;;;;;;;24.41;60.12;98307.85;1829085;77;21008;-84
2022/06/21 11:51:11;;;;;;;10.80;3.08;;;;;;;23.49;62.64;98343.69;1837337;77;21474;-81
2022/06/21 11:54:19;;;;;;;14.30;3.45;;;;;;;22.58;65.04;98365.25;1804806;77;21514;-82
2022/06/21 11:57:31;;;;;;;7.55;3.65;;;;;;;21.93;70.54;98377.98;1786566;77;20913;-85
2022/06/21 12:00:05;;;;;;;8.48;5.65;;;;;;;21.19;77.18;98382.95;1817152;76;21033;-81
2022/06/21 12:02:58;;;;;;;5.53;3.10;;;;;;;20.26;81.75;98377.09;1815382;77;21044;-80
2022/06/21 12:05:53;;;;;;;4.15;2.62;;;;;;;19.68;85.46;98372.49;1808106;76;20951;-80
2022/06/21 12:08:32;;;;;;;3.58;2.12;;;;;;;19.37;88.64;98371.50;1820472;76;21123;-79
2022/06/21 12:11:22;;;;;;;4.50;1.87;;;;;;;19.00;89.94;98384.41;1821425;76;21032;-79
2022/06/21 12:14:22;;;;;;;2.27;1.70;;;;;;;18.64;91.33;98366.58;1806480;77;21051;-78
2022/06/21 12:17:16;;;;;;;3.15;1.70;;;;;;;18.49;93.99;98380.67;1825328;76;21086;-78
2022/06/21 12:19:43;;;;;;;3.20;2.08;;;;;;;18.33;95.28;98405.75;1828472;76;21721;-76
2022/06/21 12:22:30;;;;;;;2.10;1.72;;;;;;;18.24;96.04;98412.92;1823105;76;21121;-79
2022/06/21 12:24:57;;;;;;;2.62;2.00;;;;;;;18.21;95.50;98402.66;1819439;78;21232;-76
2022/06/21 12:27:24;;;;;;;3.02;2.00;;;;;;;18.06;95.28;98403.84;1779813;78;20953;-79
2022/06/21 12:29:53;;;;;;;3.10;2.15;;;;;;;17.96;96.68;98413.09;1792932;78;21029;-78
2022/06/21 12:32:22;;;;;;;3.10;1.98;;;;;;;18.00;96.56;98413.70;1796464;78;21004;-75
2022/06/21 12:35:07;;;;;;;4.00;2.83;;;;;;;18.04;96.74;98411.31;1823538;76;21485;-78
2022/06/21 12:37:40;;;;;;;2.85;2.00;;;;;;;17.96;96.09;98414.44;1829303;78;21550;-78
2022/06/21 12:40:31;;;;;;;;;;;;;;;17.86;96.46;98380.99;1830519;78;21002;-78
2022/06/21 12:43:03;;;;;;;3.92;1.80;;;;;;;17.90;96.01;98400.12;1823407;76;20538;-79
2022/06/21 12:45:42;;;;;;;4.33;2.25;;;;;;;17.83;95.01;98419.62;1829241;77;20979;-78
2022/06/21 12:48:46;;;;;;;2.47;1.87;;;;;;;17.78;96.29;98429.75;1823077;78;21173;-78
2022/06/21 12:51:48;;;;;;;3.37;2.08;;;;;;;17.92;96.88;98412.77;1822443;76;21072;-80
2022/06/21 12:54:47;;;;;;;2.75;2.52;;;;;;;18.09;96.70;98411.38;1827741;76;21307;-76
2022/06/21 12:57:32;;;;;;;2.40;2.08;;;;;;;18.11;95.93;98401.73;1819441;76;21047;-76